sensor_id;sensor_type;location;lat;lon;timestamp;pressure;altitude;pressure_sealevel;temperature;humidity
967;BME280;56108;48.730;9.304;2023-08-01T00:01:20;96578.44;;;17.23;100.00
967;BME280;56108;48.730;9.304;2023-08-01T00:03:28;96575.59;;;17.16;100.00
967;BME280;56108;48.730;9.304;2023-08-01T00:05:39;96570.91;;;17.18;100.00
967;BME280;56108;48.730;9.304;2023-08-01T00:07:49;96560.28;;;17.17;100.00
967;BME280;56108;48.730;9.304;2023-08-01T00:09:58;96569.38;;;17.16;100.00
967;BME280;56108;48.730;9.304;2023-08-01T00:12:06;96561.63;;;17.21;100.00
967;BME280;56108;48.730;9.304;2023-08-01T00:14:14;96568.53;;;17.15;100.00
967;BME280;56108;48.730;9.304;2023-08-01T00:16:25;96555.78;;;17.09;100.00
967;BME280;56108;48.730;9.304;2023-08-01T00:18:33;96547.41;;;17.12;100.00
967;BME280;56108;48.730;9.304;2023-08-01T00:20:44;96547.06;;;17.07;100.00
967;BME280;56108;48.730;9.304;2023-08-01T00:22:52;96534.47;;;17.08;100.00
967;BME280;56108;48.730;9.304;2023-08-01T00:25:00;96523.91;;;16.98;100.00
967;BME280;56108;48.730;9.304;2023-08-01T00:27:08;96524.25;;;16.95;100.00
967;BME280;56108;48.730;9.304;2023-08-01T00:29:17;96515.84;;;16.98;100.00
967;BME280;56108;48.730;9.304;2023-08-01T00:31:25;96517.69;;;16.98;100.00
967;BME280;56108;48.730;9.304;2023-08-01T00:33:33;96511.81;;;16.94;100.00
967;BME280;56108;48.730;9.304;2023-08-01T00:35:44;96498.06;;;16.97;100.00
967;BME280;56108;48.730;9.304;2023-08-01T00:38:01;96496.84;;;17.00;100.00
967;BME280;56108;48.730;9.304;2023-08-01T00:40:09;96497.69;;;17.00;100.00
967;BME280;56108;48.730;9.304;2023-08-01T00:42:17;96481.94;;;16.97;100.00
967;BME280;56108;48.730;9.304;2023-08-01T00:44:25;96488.78;;;17.00;100.00
967;BME280;56108;48.730;9.304;2023-08-01T00:46:34;96485.78;;;16.94;100.00
967;BME280;56108;48.730;9.304;2023-08-01T00:48:43;96476.69;;;16.95;100.00
967;BME280;56108;48.730;9.304;2023-08-01T00:50:54;96472.72;;;16.91;100.00
967;BME280;56108;48.730;9.304;2023-08-01T00:53:02;96471.84;;;16.91;100.00
967;BME280;56108;48.730;9.304;2023-08-01T00:55:10;96469.84;;;16.93;100.00
967;BME280;56108;48.730;9.304;2023-08-01T00:57:19;96458.06;;;16.94;100.00
967;BME280;56108;48.730;9.304;2023-08-01T00:59:27;96456.41;;;16.93;100.00
967;BME280;56108;48.730;9.304;2023-08-01T01:01:35;96451.38;;;16.90;100.00
967;BME280;56108;48.730;9.304;2023-08-01T01:03:44;96454.41;;;16.87;100.00
967;BME280;56108;48.730;9.304;2023-08-01T01:06:12;96463.78;;;16.91;100.00
967;BME280;56108;48.730;9.304;2023-08-01T01:08:24;96457.75;;;16.97;100.00
967;BME280;56108;48.730;9.304;2023-08-01T01:10:32;96456.41;;;16.93;100.00
967;BME280;56108;48.730;9.304;2023-08-01T01:12:40;96445.66;;;16.93;100.00
967;BME280;56108;48.730;9.304;2023-08-01T01:14:49;96441.94;;;16.94;100.00
967;BME280;56108;48.730;9.304;2023-08-01T01:16:57;96445.28;;;16.96;100.00
967;BME280;56108;48.730;9.304;2023-08-01T01:19:06;96454.03;;;16.98;100.00
967;BME280;56108;48.730;9.304;2023-08-01T01:21:17;96452.00;;;17.00;100.00
967;BME280;56108;48.730;9.304;2023-08-01T01:23:27;96442.25;;;16.99;100.00
967;BME280;56108;48.730;9.304;2023-08-01T01:25:36;96455.69;;;16.99;100.00
967;BME280;56108;48.730;9.304;2023-08-01T01:27:45;96438.56;;;17.00;100.00
967;BME280;56108;48.730;9.304;2023-08-01T01:29:55;96445.06;;;17.06;100.00
967;BME280;56108;48.730;9.304;2023-08-01T01:32:05;96423.97;;;16.94;100.00
967;BME280;56108;48.730;9.304;2023-08-01T01:34:14;96441.94;;;17.02;100.00
967;BME280;56108;48.730;9.304;2023-08-01T01:36:25;96454.47;;;17.10;100.00
967;BME280;56108;48.730;9.304;2023-08-01T01:38:34;96439.06;;;17.04;100.00
967;BME280;56108;48.730;9.304;2023-08-01T01:40:42;96432.78;;;17.11;100.00
967;BME280;56108;48.730;9.304;2023-08-01T01:42:50;96416.41;;;16.98;100.00
967;BME280;56108;48.730;9.304;2023-08-01T01:44:59;96400.63;;;16.95;100.00
967;BME280;56108;48.730;9.304;2023-08-01T01:47:05;96411.88;;;16.99;100.00
967;BME280;56108;48.730;9.304;2023-08-01T01:49:13;96401.31;;;16.89;100.00
967;BME280;56108;48.730;9.304;2023-08-01T01:51:21;96379.31;;;16.85;100.00
967;BME280;56108;48.730;9.304;2023-08-01T01:53:32;96376.31;;;16.80;100.00
967;BME280;56108;48.730;9.304;2023-08-01T01:55:41;96374.31;;;16.82;100.00
967;BME280;56108;48.730;9.304;2023-08-01T01:57:51;96377.31;;;16.87;100.00
967;BME280;56108;48.730;9.304;2023-08-01T02:00:00;96369.09;;;16.81;100.00
967;BME280;56108;48.730;9.304;2023-08-01T02:02:16;96358.22;;;16.74;100.00
967;BME280;56108;48.730;9.304;2023-08-01T02:04:25;96360.91;;;16.74;100.00
967;BME280;56108;48.730;9.304;2023-08-01T02:06:30;96355.19;;;16.77;100.00
967;BME280;56108;48.730;9.304;2023-08-01T02:08:41;96354.53;;;16.75;100.00
967;BME280;56108;48.730;9.304;2023-08-01T02:10:50;96359.06;;;16.75;100.00
967;BME280;56108;48.730;9.304;2023-08-01T02:12:58;96360.91;;;16.74;100.00
967;BME280;56108;48.730;9.304;2023-08-01T02:15:07;96363.06;;;16.79;100.00
967;BME280;56108;48.730;9.304;2023-08-01T02:17:16;96356.03;;;16.69;100.00
967;BME280;56108;48.730;9.304;2023-08-01T02:19:24;96351.00;;;16.75;100.00
967;BME280;56108;48.730;9.304;2023-08-01T02:21:32;96350.66;;;16.69;100.00
967;BME280;56108;48.730;9.304;2023-08-01T02:23:43;96343.97;;;16.74;100.00
967;BME280;56108;48.730;9.304;2023-08-01T02:25:52;96338.06;;;16.78;100.00
967;BME280;56108;48.730;9.304;2023-08-01T02:28:00;96341.09;;;16.75;100.00
967;BME280;56108;48.730;9.304;2023-08-01T02:30:09;96338.91;;;16.79;100.00
967;BME280;56108;48.730;9.304;2023-08-01T02:32:18;96330.88;;;16.70;100.00
967;BME280;56108;48.730;9.304;2023-08-01T02:36:31;96329.03;;;16.63;100.00
967;BME280;56108;48.730;9.304;2023-08-01T02:38:39;96333.69;;;16.69;100.00
967;BME280;56108;48.730;9.304;2023-08-01T02:40:51;96321.09;;;16.69;100.00
967;BME280;56108;48.730;9.304;2023-08-01T02:42:59;96322.31;;;16.67;100.00
967;BME280;56108;48.730;9.304;2023-08-01T02:45:08;96326.66;;;16.68;100.00
967;BME280;56108;48.730;9.304;2023-08-01T02:47:16;96324.81;;;16.68;100.00
967;BME280;56108;48.730;9.304;2023-08-01T02:49:24;96321.81;;;16.63;100.00
967;BME280;56108;48.730;9.304;2023-08-01T02:51:32;96319.50;;;16.60;100.00
967;BME280;56108;48.730;9.304;2023-08-01T02:53:40;96324.50;;;16.63;100.00
967;BME280;56108;48.730;9.304;2023-08-01T02:55:51;96336.09;;;16.72;100.00
967;BME280;56108;48.730;9.304;2023-08-01T02:57:59;96342.28;;;16.73;100.00
967;BME280;56108;48.730;9.304;2023-08-01T03:00:08;96312.97;;;16.86;100.00
967;BME280;56108;48.730;9.304;2023-08-01T03:02:16;96322.97;;;16.77;100.00
967;BME280;56108;48.730;9.304;2023-08-01T03:04:25;96319.50;;;16.60;100.00
967;BME280;56108;48.730;9.304;2023-08-01T03:06:50;96315.72;;;16.69;100.00
967;BME280;56108;48.730;9.304;2023-08-01T03:08:58;96330.56;;;16.65;100.00
967;BME280;56108;48.730;9.304;2023-08-01T03:11:06;96341.47;;;16.72;100.00
967;BME280;56108;48.730;9.304;2023-08-01T03:13:14;96342.91;;;16.83;100.00
967;BME280;56108;48.730;9.304;2023-08-01T03:15:23;96339.22;;;16.84;100.00
967;BME280;56108;48.730;9.304;2023-08-01T03:17:29;96345.41;;;16.84;100.00
967;BME280;56108;48.730;9.304;2023-08-01T03:19:37;96343.25;;;16.80;100.00
967;BME280;56108;48.730;9.304;2023-08-01T03:21:45;96346.75;;;16.88;100.00
967;BME280;56108;48.730;9.304;2023-08-01T03:23:53;96344.88;;;16.89;100.00
967;BME280;56108;48.730;9.304;2023-08-01T03:26:02;96329.78;;;16.88;100.00
967;BME280;56108;48.730;9.304;2023-08-01T03:28:13;96332.09;;;16.91;100.00
967;BME280;56108;48.730;9.304;2023-08-01T03:30:21;96325.84;;;16.99;100.00
967;BME280;56108;48.730;9.304;2023-08-01T03:32:32;96332.06;;;16.99;100.00
967;BME280;56108;48.730;9.304;2023-08-01T03:34:40;96328.84;;;17.04;100.00
967;BME280;56108;48.730;9.304;2023-08-01T03:36:48;96340.25;;;17.06;100.00
967;BME280;56108;48.730;9.304;2023-08-01T03:38:57;96341.91;;;17.07;100.00
967;BME280;56108;48.730;9.304;2023-08-01T03:41:05;96339.72;;;17.10;100.00
967;BME280;56108;48.730;9.304;2023-08-01T03:43:16;96339.38;;;17.13;100.00
967;BME280;56108;48.730;9.304;2023-08-01T03:45:29;96340.84;;;17.16;100.00
967;BME280;56108;48.730;9.304;2023-08-01T03:47:37;96345.69;;;17.20;100.00
967;BME280;56108;48.730;9.304;2023-08-01T03:49:45;96357.97;;;17.23;100.00
967;BME280;56108;48.730;9.304;2023-08-01T03:51:54;96354.41;;;17.22;100.00
967;BME280;56108;48.730;9.304;2023-08-01T03:54:04;96361.25;;;17.33;100.00
967;BME280;56108;48.730;9.304;2023-08-01T03:56:17;96353.88;;;17.27;100.00
967;BME280;56108;48.730;9.304;2023-08-01T03:58:28;96371.09;;;17.41;100.00
967;BME280;56108;48.730;9.304;2023-08-01T04:00:36;96362.31;;;17.47;100.00
967;BME280;56108;48.730;9.304;2023-08-01T04:02:45;96377.72;;;17.53;100.00
967;BME280;56108;48.730;9.304;2023-08-01T04:04:55;96382.97;;;17.55;100.00
967;BME280;56108;48.730;9.304;2023-08-01T04:07:04;96377.63;;;17.46;100.00
967;BME280;56108;48.730;9.304;2023-08-01T04:09:12;96369.50;;;17.55;100.00
967;BME280;56108;48.730;9.304;2023-08-01T04:11:21;96370.91;;;17.42;100.00
967;BME280;56108;48.730;9.304;2023-08-01T04:13:32;96350.84;;;17.53;100.00
967;BME280;56108;48.730;9.304;2023-08-01T04:15:40;96351.25;;;17.65;100.00
967;BME280;56108;48.730;9.304;2023-08-01T04:17:48;96342.94;;;17.52;100.00
967;BME280;56108;48.730;9.304;2023-08-01T04:19:56;96328.97;;;17.56;100.00
967;BME280;56108;48.730;9.304;2023-08-01T04:22:05;96303.91;;;17.56;100.00
967;BME280;56108;48.730;9.304;2023-08-01T04:24:14;96287.53;;;17.65;100.00
967;BME280;56108;48.730;9.304;2023-08-01T04:26:22;96291.06;;;17.66;100.00
967;BME280;56108;48.730;9.304;2023-08-01T04:28:33;96279.91;;;17.69;100.00
967;BME280;56108;48.730;9.304;2023-08-01T04:30:42;96275.50;;;17.76;100.00
967;BME280;56108;48.730;9.304;2023-08-01T04:32:56;96265.94;;;17.73;100.00
967;BME280;56108;48.730;9.304;2023-08-01T04:35:05;96262.69;;;17.78;100.00
967;BME280;56108;48.730;9.304;2023-08-01T04:37:13;96244.25;;;17.75;100.00
967;BME280;56108;48.730;9.304;2023-08-01T04:39:21;96227.25;;;17.74;100.00
967;BME280;56108;48.730;9.304;2023-08-01T04:41:29;96209.72;;;17.79;100.00
967;BME280;56108;48.730;9.304;2023-08-01T04:43:40;96178.81;;;17.89;100.00
967;BME280;56108;48.730;9.304;2023-08-01T04:45:48;96149.38;;;17.88;100.00
967;BME280;56108;48.730;9.304;2023-08-01T04:47:56;96142.97;;;17.89;100.00
967;BME280;56108;48.730;9.304;2023-08-01T04:50:06;96132.28;;;17.95;100.00
967;BME280;56108;48.730;9.304;2023-08-01T04:52:14;96090.78;;;18.05;100.00
967;BME280;56108;48.730;9.304;2023-08-01T04:54:22;96090.03;;;18.11;100.00
967;BME280;56108;48.730;9.304;2023-08-01T04:56:32;96155.94;;;18.15;100.00
967;BME280;56108;48.730;9.304;2023-08-01T04:58:43;96180.38;;;18.13;100.00
967;BME280;56108;48.730;9.304;2023-08-01T05:00:51;96173.19;;;18.20;100.00
967;BME280;56108;48.730;9.304;2023-08-01T05:02:59;96191.59;;;18.17;100.00
967;BME280;56108;48.730;9.304;2023-08-01T05:05:07;96178.50;;;18.14;100.00
967;BME280;56108;48.730;9.304;2023-08-01T05:07:15;96189.06;;;18.15;100.00
967;BME280;56108;48.730;9.304;2023-08-01T05:09:24;96191.00;;;18.21;100.00
967;BME280;56108;48.730;9.304;2023-08-01T05:11:32;96200.31;;;18.19;100.00
967;BME280;56108;48.730;9.304;2023-08-01T05:13:43;96201.91;;;18.13;100.00
967;BME280;56108;48.730;9.304;2023-08-01T05:15:51;96214.25;;;18.22;100.00
967;BME280;56108;48.730;9.304;2023-08-01T05:18:00;96225.03;;;18.22;100.00
967;BME280;56108;48.730;9.304;2023-08-01T05:20:08;96225.84;;;18.08;100.00
967;BME280;56108;48.730;9.304;2023-08-01T05:22:17;96244.72;;;18.08;100.00
967;BME280;56108;48.730;9.304;2023-08-01T05:24:22;96254.66;;;18.08;100.00
967;BME280;56108;48.730;9.304;2023-08-01T05:26:33;96250.28;;;18.07;100.00
967;BME280;56108;48.730;9.304;2023-08-01T05:28:44;96243.59;;;18.17;100.00
967;BME280;56108;48.730;9.304;2023-08-01T05:30:52;96237.19;;;18.18;100.00
967;BME280;56108;48.730;9.304;2023-08-01T05:33:00;96242.16;;;18.21;100.00
967;BME280;56108;48.730;9.304;2023-08-01T05:35:09;96256.22;;;18.17;100.00
967;BME280;56108;48.730;9.304;2023-08-01T05:37:17;96268.47;;;18.19;100.00
967;BME280;56108;48.730;9.304;2023-08-01T05:39:25;96276.19;;;18.08;100.00
967;BME280;56108;48.730;9.304;2023-08-01T05:41:33;96274.25;;;18.02;100.00
967;BME280;56108;48.730;9.304;2023-08-01T05:43:44;96281.00;;;17.97;100.00
967;BME280;56108;48.730;9.304;2023-08-01T05:45:52;96281.72;;;18.06;100.00
967;BME280;56108;48.730;9.304;2023-08-01T05:48:00;96264.75;;;18.06;100.00
967;BME280;56108;48.730;9.304;2023-08-01T05:50:09;96253.16;;;18.05;100.00
967;BME280;56108;48.730;9.304;2023-08-01T05:52:17;96257.91;;;18.03;100.00
967;BME280;56108;48.730;9.304;2023-08-01T05:54:25;96250.44;;;18.05;100.00
967;BME280;56108;48.730;9.304;2023-08-01T05:56:33;96267.63;;;18.04;100.00
967;BME280;56108;48.730;9.304;2023-08-01T05:58:39;96265.22;;;18.09;100.00
967;BME280;56108;48.730;9.304;2023-08-01T06:00:52;96259.09;;;18.15;100.00
967;BME280;56108;48.730;9.304;2023-08-01T06:03:00;96265.97;;;18.18;100.00
967;BME280;56108;48.730;9.304;2023-08-01T06:05:08;96277.19;;;18.21;100.00
967;BME280;56108;48.730;9.304;2023-08-01T06:07:17;96279.13;;;18.42;100.00
967;BME280;56108;48.730;9.304;2023-08-01T06:09:28;96274.47;;;18.36;100.00
967;BME280;56108;48.730;9.304;2023-08-01T06:11:36;96286.84;;;18.45;100.00
967;BME280;56108;48.730;9.304;2023-08-01T06:13:44;96282.94;;;18.48;100.00
967;BME280;56108;48.730;9.304;2023-08-01T06:15:55;96277.44;;;18.41;100.00
967;BME280;56108;48.730;9.304;2023-08-01T06:18:03;96273.28;;;18.39;100.00
967;BME280;56108;48.730;9.304;2023-08-01T06:20:11;96280.69;;;18.37;100.00
967;BME280;56108;48.730;9.304;2023-08-01T06:22:20;96282.00;;;18.41;100.00
967;BME280;56108;48.730;9.304;2023-08-01T06:24:28;96285.09;;;18.38;100.00
967;BME280;56108;48.730;9.304;2023-08-01T06:26:36;96280.31;;;18.55;100.00
967;BME280;56108;48.730;9.304;2023-08-01T06:28:44;96275.69;;;18.48;100.00
967;BME280;56108;48.730;9.304;2023-08-01T06:30:55;96272.19;;;18.33;100.00
967;BME280;56108;48.730;9.304;2023-08-01T06:33:03;96275.72;;;18.34;100.00
967;BME280;56108;48.730;9.304;2023-08-01T06:35:12;96273.94;;;18.26;100.00
967;BME280;56108;48.730;9.304;2023-08-01T06:37:20;96283.16;;;18.17;100.00
967;BME280;56108;48.730;9.304;2023-08-01T06:39:29;96289.72;;;18.29;100.00
967;BME280;56108;48.730;9.304;2023-08-01T06:41:37;96292.44;;;18.14;100.00
967;BME280;56108;48.730;9.304;2023-08-01T06:43:45;96296.50;;;17.95;100.00
967;BME280;56108;48.730;9.304;2023-08-01T06:45:56;96298.34;;;17.95;100.00
967;BME280;56108;48.730;9.304;2023-08-01T06:48:04;96293.38;;;18.07;100.00
967;BME280;56108;48.730;9.304;2023-08-01T06:50:13;96285.66;;;18.04;100.00
967;BME280;56108;48.730;9.304;2023-08-01T06:52:21;96295.09;;;17.99;100.00
967;BME280;56108;48.730;9.304;2023-08-01T06:54:29;96287.97;;;18.07;100.00
967;BME280;56108;48.730;9.304;2023-08-01T06:56:40;96308.66;;;18.06;100.00
967;BME280;56108;48.730;9.304;2023-08-01T06:58:52;96320.25;;;17.92;100.00
967;BME280;56108;48.730;9.304;2023-08-01T07:01:03;96303.75;;;17.80;100.00
967;BME280;56108;48.730;9.304;2023-08-01T07:03:12;96303.28;;;17.68;100.00
967;BME280;56108;48.730;9.304;2023-08-01T07:05:20;96279.03;;;17.54;100.00
967;BME280;56108;48.730;9.304;2023-08-01T07:07:28;96261.94;;;17.32;100.00
967;BME280;56108;48.730;9.304;2023-08-01T07:09:39;96262.50;;;17.42;100.00
967;BME280;56108;48.730;9.304;2023-08-01T07:11:47;96266.81;;;17.51;100.00
967;BME280;56108;48.730;9.304;2023-08-01T07:13:55;96268.19;;;17.47;100.00
967;BME280;56108;48.730;9.304;2023-08-01T07:16:06;96270.50;;;17.50;100.00
967;BME280;56108;48.730;9.304;2023-08-01T07:18:14;96273.81;;;17.37;100.00
967;BME280;56108;48.730;9.304;2023-08-01T07:20:24;96270.47;;;17.35;100.00
967;BME280;56108;48.730;9.304;2023-08-01T07:22:32;96272.09;;;17.44;100.00
967;BME280;56108;48.730;9.304;2023-08-01T07:24:40;96261.16;;;17.61;100.00
967;BME280;56108;48.730;9.304;2023-08-01T07:26:48;96281.91;;;17.52;100.00
967;BME280;56108;48.730;9.304;2023-08-01T07:28:59;96282.59;;;17.54;100.00
967;BME280;56108;48.730;9.304;2023-08-01T07:31:10;96278.41;;;17.52;100.00
967;BME280;56108;48.730;9.304;2023-08-01T07:33:18;96296.94;;;17.46;100.00
967;BME280;56108;48.730;9.304;2023-08-01T07:35:27;96287.94;;;17.39;100.00
967;BME280;56108;48.730;9.304;2023-08-01T07:37:36;96284.28;;;17.32;100.00
967;BME280;56108;48.730;9.304;2023-08-01T07:39:46;96303.94;;;17.33;100.00
967;BME280;56108;48.730;9.304;2023-08-01T07:41:55;96322.41;;;17.36;100.00
967;BME280;56108;48.730;9.304;2023-08-01T07:44:04;96318.59;;;17.30;100.00
967;BME280;56108;48.730;9.304;2023-08-01T07:46:19;96317.97;;;17.43;100.00
967;BME280;56108;48.730;9.304;2023-08-01T07:48:29;96309.09;;;17.19;100.00
967;BME280;56108;48.730;9.304;2023-08-01T07:50:37;96324.09;;;17.14;100.00
967;BME280;56108;48.730;9.304;2023-08-01T07:52:45;96327.31;;;17.09;100.00
967;BME280;56108;48.730;9.304;2023-08-01T07:54:54;96328.00;;;17.03;100.00
967;BME280;56108;48.730;9.304;2023-08-01T07:57:05;96331.34;;;17.05;100.00
967;BME280;56108;48.730;9.304;2023-08-01T07:59:22;96335.66;;;16.91;100.00
967;BME280;56108;48.730;9.304;2023-08-01T08:01:33;96317.78;;;16.67;100.00
967;BME280;56108;48.730;9.304;2023-08-01T08:03:42;96307.69;;;16.69;100.00
967;BME280;56108;48.730;9.304;2023-08-01T08:05:53;96294.34;;;16.53;100.00
967;BME280;56108;48.730;9.304;2023-08-01T08:08:08;96276.94;;;16.41;100.00
967;BME280;56108;48.730;9.304;2023-08-01T08:10:18;96287.41;;;16.59;100.00
967;BME280;56108;48.730;9.304;2023-08-01T08:12:26;96293.47;;;16.61;100.00
967;BME280;56108;48.730;9.304;2023-08-01T08:14:34;96280.69;;;16.63;100.00
967;BME280;56108;48.730;9.304;2023-08-01T08:16:46;96271.22;;;16.44;100.00
967;BME280;56108;48.730;9.304;2023-08-01T08:18:52;96261.03;;;16.39;100.00
967;BME280;56108;48.730;9.304;2023-08-01T08:21:00;96256.13;;;16.43;100.00
967;BME280;56108;48.730;9.304;2023-08-01T08:23:08;96254.09;;;16.45;100.00
967;BME280;56108;48.730;9.304;2023-08-01T08:25:18;96233.91;;;16.49;100.00
967;BME280;56108;48.730;9.304;2023-08-01T08:27:26;96231.19;;;16.57;100.00
967;BME280;56108;48.730;9.304;2023-08-01T08:29:34;96233.59;;;16.52;100.00
967;BME280;56108;48.730;9.304;2023-08-01T08:31:42;96230.72;;;16.54;100.00
967;BME280;56108;48.730;9.304;2023-08-01T08:33:53;96229.78;;;16.69;100.00
967;BME280;56108;48.730;9.304;2023-08-01T08:36:03;96230.00;;;16.60;100.00
967;BME280;56108;48.730;9.304;2023-08-01T08:38:11;96231.38;;;16.56;100.00
967;BME280;56108;48.730;9.304;2023-08-01T08:40:21;96224.31;;;16.55;100.00
967;BME280;56108;48.730;9.304;2023-08-01T08:42:32;96225.31;;;16.62;100.00
967;BME280;56108;48.730;9.304;2023-08-01T08:44:43;96224.41;;;16.69;100.00
967;BME280;56108;48.730;9.304;2023-08-01T08:46:52;96231.19;;;16.88;100.00
967;BME280;56108;48.730;9.304;2023-08-01T08:49:04;96233.19;;;17.32;100.00
967;BME280;56108;48.730;9.304;2023-08-01T08:51:15;96258.56;;;17.67;100.00
967;BME280;56108;48.730;9.304;2023-08-01T08:53:26;96282.28;;;17.87;100.00
967;BME280;56108;48.730;9.304;2023-08-01T08:55:34;96296.06;;;18.07;100.00
967;BME280;56108;48.730;9.304;2023-08-01T08:57:45;96299.59;;;18.22;100.00
967;BME280;56108;48.730;9.304;2023-08-01T08:59:56;96312.59;;;18.33;100.00
967;BME280;56108;48.730;9.304;2023-08-01T09:02:11;96305.25;;;18.12;100.00
967;BME280;56108;48.730;9.304;2023-08-01T09:04:22;96301.34;;;18.30;100.00
967;BME280;56108;48.730;9.304;2023-08-01T09:06:34;96304.09;;;18.51;100.00
967;BME280;56108;48.730;9.304;2023-08-01T09:08:50;96305.00;;;18.58;100.00
967;BME280;56108;48.730;9.304;2023-08-01T09:10:59;96300.94;;;18.47;100.00
967;BME280;56108;48.730;9.304;2023-08-01T09:13:07;96305.06;;;18.43;100.00
967;BME280;56108;48.730;9.304;2023-08-01T09:15:16;96303.06;;;18.67;100.00
967;BME280;56108;48.730;9.304;2023-08-01T09:17:25;96300.03;;;18.55;100.00
967;BME280;56108;48.730;9.304;2023-08-01T09:19:36;96302.91;;;18.39;100.00
967;BME280;56108;48.730;9.304;2023-08-01T09:21:45;96300.13;;;18.32;100.00
967;BME280;56108;48.730;9.304;2023-08-01T09:23:54;96296.50;;;18.25;100.00
967;BME280;56108;48.730;9.304;2023-08-01T09:26:12;96288.06;;;18.28;100.00
967;BME280;56108;48.730;9.304;2023-08-01T09:28:22;96280.16;;;17.97;100.00
967;BME280;56108;48.730;9.304;2023-08-01T09:30:32;96269.13;;;17.92;100.00
967;BME280;56108;48.730;9.304;2023-08-01T09:32:40;96281.63;;;17.85;100.00
967;BME280;56108;48.730;9.304;2023-08-01T09:35:01;96282.03;;;17.96;100.00
967;BME280;56108;48.730;9.304;2023-08-01T09:37:10;96279.16;;;17.98;100.00
967;BME280;56108;48.730;9.304;2023-08-01T09:39:20;96281.66;;;17.99;100.00
967;BME280;56108;48.730;9.304;2023-08-01T09:41:30;96280.91;;;18.06;100.00
967;BME280;56108;48.730;9.304;2023-08-01T09:43:38;96271.63;;;17.93;100.00
967;BME280;56108;48.730;9.304;2023-08-01T09:45:51;96275.25;;;17.86;100.00
967;BME280;56108;48.730;9.304;2023-08-01T09:48:00;96291.88;;;18.19;100.00
967;BME280;56108;48.730;9.304;2023-08-01T09:50:21;96290.44;;;18.52;100.00
967;BME280;56108;48.730;9.304;2023-08-01T09:52:29;96306.69;;;18.74;100.00
967;BME280;56108;48.730;9.304;2023-08-01T09:54:37;96317.28;;;18.61;100.00
967;BME280;56108;48.730;9.304;2023-08-01T09:56:47;96323.44;;;18.69;100.00
967;BME280;56108;48.730;9.304;2023-08-01T09:58:59;96323.72;;;18.45;100.00
967;BME280;56108;48.730;9.304;2023-08-01T10:01:08;96328.75;;;18.48;100.00
967;BME280;56108;48.730;9.304;2023-08-01T10:03:16;96323.59;;;18.53;100.00
967;BME280;56108;48.730;9.304;2023-08-01T10:05:31;96321.38;;;18.86;100.00
967;BME280;56108;48.730;9.304;2023-08-01T10:07:41;96325.19;;;19.13;100.00
967;BME280;56108;48.730;9.304;2023-08-01T10:09:50;96335.88;;;19.43;100.00
967;BME280;56108;48.730;9.304;2023-08-01T10:11:59;96330.69;;;19.63;100.00
967;BME280;56108;48.730;9.304;2023-08-01T10:14:08;96340.06;;;19.67;100.00
967;BME280;56108;48.730;9.304;2023-08-01T10:16:16;96334.78;;;19.59;100.00
967;BME280;56108;48.730;9.304;2023-08-01T10:18:25;96333.94;;;19.37;100.00
967;BME280;56108;48.730;9.304;2023-08-01T10:20:39;96334.84;;;19.44;100.00
967;BME280;56108;48.730;9.304;2023-08-01T10:22:48;96334.06;;;19.28;100.00
967;BME280;56108;48.730;9.304;2023-08-01T10:24:54;96334.53;;;19.32;100.00
967;BME280;56108;48.730;9.304;2023-08-01T10:27:11;96346.00;;;19.41;100.00
967;BME280;56108;48.730;9.304;2023-08-01T10:29:20;96340.34;;;19.57;100.00
967;BME280;56108;48.730;9.304;2023-08-01T10:31:28;96343.72;;;19.80;100.00
967;BME280;56108;48.730;9.304;2023-08-01T10:33:37;96345.59;;;19.80;100.00
967;BME280;56108;48.730;9.304;2023-08-01T10:35:48;96348.13;;;19.88;100.00
967;BME280;56108;48.730;9.304;2023-08-01T10:38:04;96354.50;;;20.02;100.00
967;BME280;56108;48.730;9.304;2023-08-01T10:40:12;96357.88;;;20.11;100.00
967;BME280;56108;48.730;9.304;2023-08-01T10:42:21;96353.34;;;20.18;100.00
967;BME280;56108;48.730;9.304;2023-08-01T10:44:29;96357.19;;;20.02;100.00
967;BME280;56108;48.730;9.304;2023-08-01T10:46:46;96357.69;;;20.12;100.00
967;BME280;56108;48.730;9.304;2023-08-01T10:48:52;96369.41;;;20.54;100.00
967;BME280;56108;48.730;9.304;2023-08-01T10:51:03;96370.16;;;20.76;100.00
967;BME280;56108;48.730;9.304;2023-08-01T10:53:11;96369.44;;;20.95;100.00
967;BME280;56108;48.730;9.304;2023-08-01T10:55:21;96365.78;;;21.23;100.00
967;BME280;56108;48.730;9.304;2023-08-01T10:57:30;96372.16;;;21.63;100.00
967;BME280;56108;48.730;9.304;2023-08-01T10:59:39;96364.91;;;22.10;100.00
967;BME280;56108;48.730;9.304;2023-08-01T11:01:49;96367.19;;;23.17;100.00
967;BME280;56108;48.730;9.304;2023-08-01T11:03:57;96369.78;;;22.99;100.00
967;BME280;56108;48.730;9.304;2023-08-01T11:06:11;96353.97;;;22.83;100.00
967;BME280;56108;48.730;9.304;2023-08-01T11:08:19;96350.53;;;22.16;100.00
967;BME280;56108;48.730;9.304;2023-08-01T11:10:28;96348.84;;;21.75;100.00
967;BME280;56108;48.730;9.304;2023-08-01T11:12:39;96382.50;;;21.33;100.00
967;BME280;56108;48.730;9.304;2023-08-01T11:14:48;96395.28;;;21.11;100.00
967;BME280;56108;48.730;9.304;2023-08-01T11:16:57;96388.56;;;20.94;100.00
967;BME280;56108;48.730;9.304;2023-08-01T11:19:17;96394.47;;;21.10;100.00
967;BME280;56108;48.730;9.304;2023-08-01T11:21:29;96395.88;;;21.00;100.00
967;BME280;56108;48.730;9.304;2023-08-01T11:23:40;96389.63;;;21.54;100.00
967;BME280;56108;48.730;9.304;2023-08-01T11:25:48;96397.59;;;21.69;100.00
967;BME280;56108;48.730;9.304;2023-08-01T11:27:56;96404.88;;;21.68;100.00
967;BME280;56108;48.730;9.304;2023-08-01T11:30:07;96410.72;;;21.72;95.26
967;BME280;56108;48.730;9.304;2023-08-01T11:32:15;96400.91;;;21.64;97.98
967;BME280;56108;48.730;9.304;2023-08-01T11:34:25;96418.47;;;21.27;88.45
967;BME280;56108;48.730;9.304;2023-08-01T11:36:37;96405.63;;;21.35;91.99